La Dole, Switzerland
Current Conditions -  °F | °C
As of 4:50 PM on Friday 28 Nov 2014 (Local Time) from LSGG Reporting Station
Overcast Overcast  
Wind Chill: 48°   Ceiling: 1200
Heat Index: 48°   Visibility: 6mi
Dew Point: 43°   Wind: 3mph
Humidity: 82%   Direction: 30°NNE
Pressure: 29.68"   Gusts: NA
Location:  46.43°N, 6.11°E
Report Text: LSGG 281550Z 03003KT 9999 OVC012 09/06 Q1005 NOSIG
Loading
Personal Weather Stations






























Interactive Weather Map New forecast layout! Learn more

10-Day Weather Forecast

Advertisements
Track Severe Weather on mobile